sensor_id;sensor_type;location;lat;lon;timestamp;temperature;humidity
25074;DHT22;13066;52.042;5.648;2022-08-18T00:01:09;21.20;99.90
25074;DHT22;13066;52.042;5.648;2022-08-18T00:03:41;21.20;99.90
25074;DHT22;13066;52.042;5.648;2022-08-18T00:06:26;21.20;99.90
25074;DHT22;13066;52.042;5.648;2022-08-18T00:08:57;21.10;99.90
25074;DHT22;13066;52.042;5.648;2022-08-18T00:11:30;21.10;99.90
25074;DHT22;13066;52.042;5.648;2022-08-18T00:14:10;21.10;99.90
25074;DHT22;13066;52.042;5.648;2022-08-18T00:16:49;21.10;99.90
25074;DHT22;13066;52.042;5.648;2022-08-18T00:19:18;21.00;99.90
25074;DHT22;13066;52.042;5.648;2022-08-18T00:22:07;21.00;99.90
25074;DHT22;13066;52.042;5.648;2022-08-18T00:24:42;21.00;99.90
25074;DHT22;13066;52.042;5.648;2022-08-18T00:27:17;21.00;99.90
25074;DHT22;13066;52.042;5.648;2022-08-18T00:29:49;21.00;99.90
25074;DHT22;13066;52.042;5.648;2022-08-18T00:32:19;20.90;99.90
25074;DHT22;13066;52.042;5.648;2022-08-18T00:34:47;20.90;99.90
25074;DHT22;13066;52.042;5.648;2022-08-18T00:37:16;20.90;99.90
25074;DHT22;13066;52.042;5.648;2022-08-18T00:39:44;20.80;99.90
25074;DHT22;13066;52.042;5.648;2022-08-18T00:42:17;20.80;99.90
25074;DHT22;13066;52.042;5.648;2022-08-18T00:44:59;20.80;99.90
25074;DHT22;13066;52.042;5.648;2022-08-18T00:47:28;20.70;99.90
25074;DHT22;13066;52.042;5.648;2022-08-18T00:50:12;20.70;99.90
25074;DHT22;13066;52.042;5.648;2022-08-18T00:52:44;20.70;99.90
25074;DHT22;13066;52.042;5.648;2022-08-18T00:55:15;20.70;99.90
25074;DHT22;13066;52.042;5.648;2022-08-18T00:57:46;20.70;99.90
25074;DHT22;13066;52.042;5.648;2022-08-18T01:00:15;20.70;99.90
25074;DHT22;13066;52.042;5.648;2022-08-18T01:02:49;20.70;99.90
25074;DHT22;13066;52.042;5.648;2022-08-18T01:05:23;20.80;99.90
25074;DHT22;13066;52.042;5.648;2022-08-18T01:07:53;20.70;99.90
25074;DHT22;13066;52.042;5.648;2022-08-18T01:10:22;20.70;99.90
25074;DHT22;13066;52.042;5.648;2022-08-18T01:12:54;20.70;99.90
25074;DHT22;13066;52.042;5.648;2022-08-18T01:15:25;20.70;99.90
25074;DHT22;13066;52.042;5.648;2022-08-18T01:17:57;20.70;99.90
25074;DHT22;13066;52.042;5.648;2022-08-18T01:20:44;20.70;99.90
25074;DHT22;13066;52.042;5.648;2022-08-18T01:23:34;20.70;99.90
25074;DHT22;13066;52.042;5.648;2022-08-18T01:26:03;20.70;99.90
25074;DHT22;13066;52.042;5.648;2022-08-18T01:28:33;20.70;99.90
25074;DHT22;13066;52.042;5.648;2022-08-18T01:31:02;20.70;99.90
25074;DHT22;13066;52.042;5.648;2022-08-18T01:33:32;20.70;99.90
25074;DHT22;13066;52.042;5.648;2022-08-18T01:36:09;20.70;99.90
25074;DHT22;13066;52.042;5.648;2022-08-18T01:38:45;20.70;99.90
25074;DHT22;13066;52.042;5.648;2022-08-18T01:41:14;20.70;99.90
25074;DHT22;13066;52.042;5.648;2022-08-18T01:43:56;20.70;99.90
25074;DHT22;13066;52.042;5.648;2022-08-18T01:46:26;20.60;99.90
25074;DHT22;13066;52.042;5.648;2022-08-18T01:48:55;20.60;99.90
25074;DHT22;13066;52.042;5.648;2022-08-18T01:51:28;20.70;99.90
25074;DHT22;13066;52.042;5.648;2022-08-18T01:54:10;20.70;99.90
25074;DHT22;13066;52.042;5.648;2022-08-18T01:56:39;20.70;99.90
25074;DHT22;13066;52.042;5.648;2022-08-18T01:59:10;20.70;99.90
25074;DHT22;13066;52.042;5.648;2022-08-18T02:01:44;20.70;99.90
25074;DHT22;13066;52.042;5.648;2022-08-18T02:04:20;20.70;99.90
25074;DHT22;13066;52.042;5.648;2022-08-18T02:07:06;20.80;99.90
25074;DHT22;13066;52.042;5.648;2022-08-18T02:09:37;20.80;99.90
25074;DHT22;13066;52.042;5.648;2022-08-18T02:12:07;20.80;99.90
25074;DHT22;13066;52.042;5.648;2022-08-18T02:14:36;20.80;99.90
25074;DHT22;13066;52.042;5.648;2022-08-18T02:17:06;20.80;99.90
25074;DHT22;13066;52.042;5.648;2022-08-18T02:19:38;20.80;99.90
25074;DHT22;13066;52.042;5.648;2022-08-18T02:22:08;20.80;99.90
25074;DHT22;13066;52.042;5.648;2022-08-18T02:24:38;20.90;99.90
25074;DHT22;13066;52.042;5.648;2022-08-18T02:27:07;20.90;99.90
25074;DHT22;13066;52.042;5.648;2022-08-18T02:29:36;20.90;99.90
25074;DHT22;13066;52.042;5.648;2022-08-18T02:32:05;20.90;99.90
25074;DHT22;13066;52.042;5.648;2022-08-18T02:34:34;20.90;99.90
25074;DHT22;13066;52.042;5.648;2022-08-18T02:37:02;20.90;99.90
25074;DHT22;13066;52.042;5.648;2022-08-18T02:39:33;20.90;99.90
25074;DHT22;13066;52.042;5.648;2022-08-18T02:42:06;20.90;99.90
25074;DHT22;13066;52.042;5.648;2022-08-18T02:44:35;20.90;99.90
25074;DHT22;13066;52.042;5.648;2022-08-18T02:47:03;21.00;99.90
25074;DHT22;13066;52.042;5.648;2022-08-18T02:49:31;20.90;99.90
25074;DHT22;13066;52.042;5.648;2022-08-18T02:51:59;20.90;99.90
25074;DHT22;13066;52.042;5.648;2022-08-18T02:54:27;20.90;99.90
25074;DHT22;13066;52.042;5.648;2022-08-18T02:56:56;20.90;99.90
25074;DHT22;13066;52.042;5.648;2022-08-18T02:59:26;20.90;99.90
25074;DHT22;13066;52.042;5.648;2022-08-18T03:01:59;20.90;99.90
25074;DHT22;13066;52.042;5.648;2022-08-18T03:04:29;20.90;99.90
25074;DHT22;13066;52.042;5.648;2022-08-18T03:06:59;20.90;99.90
25074;DHT22;13066;52.042;5.648;2022-08-18T03:09:29;20.90;99.90
25074;DHT22;13066;52.042;5.648;2022-08-18T03:11:57;20.90;99.90
25074;DHT22;13066;52.042;5.648;2022-08-18T03:14:27;20.90;99.90
25074;DHT22;13066;52.042;5.648;2022-08-18T03:16:56;20.90;99.90
25074;DHT22;13066;52.042;5.648;2022-08-18T03:19:26;20.90;99.90
25074;DHT22;13066;52.042;5.648;2022-08-18T03:21:55;20.90;99.90
25074;DHT22;13066;52.042;5.648;2022-08-18T03:24:29;20.90;99.90
25074;DHT22;13066;52.042;5.648;2022-08-18T03:26:59;20.90;99.90
25074;DHT22;13066;52.042;5.648;2022-08-18T03:29:29;20.90;99.90
25074;DHT22;13066;52.042;5.648;2022-08-18T03:31:59;20.90;99.90
25074;DHT22;13066;52.042;5.648;2022-08-18T03:34:27;20.80;99.90
25074;DHT22;13066;52.042;5.648;2022-08-18T03:36:56;20.80;99.90
25074;DHT22;13066;52.042;5.648;2022-08-18T03:39:24;20.80;99.90
25074;DHT22;13066;52.042;5.648;2022-08-18T03:41:54;20.80;99.90
25074;DHT22;13066;52.042;5.648;2022-08-18T03:44:30;20.70;99.90
25074;DHT22;13066;52.042;5.648;2022-08-18T03:46:59;20.70;99.90
25074;DHT22;13066;52.042;5.648;2022-08-18T03:49:30;20.70;99.90
25074;DHT22;13066;52.042;5.648;2022-08-18T03:51:59;20.60;99.90
25074;DHT22;13066;52.042;5.648;2022-08-18T03:54:28;20.60;99.90
25074;DHT22;13066;52.042;5.648;2022-08-18T03:56:58;20.60;99.90
25074;DHT22;13066;52.042;5.648;2022-08-18T03:59:29;20.60;99.90
25074;DHT22;13066;52.042;5.648;2022-08-18T04:01:58;20.60;99.90
25074;DHT22;13066;52.042;5.648;2022-08-18T04:04:27;20.60;99.90
25074;DHT22;13066;52.042;5.648;2022-08-18T04:06:58;20.50;99.90
25074;DHT22;13066;52.042;5.648;2022-08-18T04:09:28;20.50;99.90
25074;DHT22;13066;52.042;5.648;2022-08-18T04:11:58;20.50;99.90
25074;DHT22;13066;52.042;5.648;2022-08-18T04:14:33;20.50;99.90
25074;DHT22;13066;52.042;5.648;2022-08-18T04:17:03;20.50;99.90
25074;DHT22;13066;52.042;5.648;2022-08-18T04:19:31;20.50;99.90
25074;DHT22;13066;52.042;5.648;2022-08-18T04:22:01;20.50;99.90
25074;DHT22;13066;52.042;5.648;2022-08-18T04:24:31;20.40;99.90
25074;DHT22;13066;52.042;5.648;2022-08-18T04:27:02;20.50;99.90
25074;DHT22;13066;52.042;5.648;2022-08-18T04:29:32;20.50;99.90
25074;DHT22;13066;52.042;5.648;2022-08-18T04:32:01;20.50;99.90
25074;DHT22;13066;52.042;5.648;2022-08-18T04:34:31;20.50;99.90
25074;DHT22;13066;52.042;5.648;2022-08-18T04:37:00;20.50;99.90
25074;DHT22;13066;52.042;5.648;2022-08-18T04:39:29;20.40;99.90
25074;DHT22;13066;52.042;5.648;2022-08-18T04:41:57;20.40;99.90
25074;DHT22;13066;52.042;5.648;2022-08-18T04:44:27;20.40;99.90
25074;DHT22;13066;52.042;5.648;2022-08-18T04:46:56;20.30;99.90
25074;DHT22;13066;52.042;5.648;2022-08-18T04:49:25;20.30;99.90
25074;DHT22;13066;52.042;5.648;2022-08-18T04:51:54;20.30;99.90
25074;DHT22;13066;52.042;5.648;2022-08-18T04:55:00;20.40;99.90
25074;DHT22;13066;52.042;5.648;2022-08-18T04:57:28;20.30;99.90
25074;DHT22;13066;52.042;5.648;2022-08-18T05:00:00;20.30;99.90
25074;DHT22;13066;52.042;5.648;2022-08-18T05:02:30;20.30;99.90
25074;DHT22;13066;52.042;5.648;2022-08-18T05:04:59;20.40;99.90
25074;DHT22;13066;52.042;5.648;2022-08-18T05:07:30;20.30;99.90
25074;DHT22;13066;52.042;5.648;2022-08-18T05:09:58;20.30;99.90
25074;DHT22;13066;52.042;5.648;2022-08-18T05:12:26;20.30;99.90
25074;DHT22;13066;52.042;5.648;2022-08-18T05:14:55;20.30;99.90
25074;DHT22;13066;52.042;5.648;2022-08-18T05:17:23;20.30;99.90
25074;DHT22;13066;52.042;5.648;2022-08-18T05:19:58;20.30;99.90
25074;DHT22;13066;52.042;5.648;2022-08-18T05:22:27;20.20;99.90
25074;DHT22;13066;52.042;5.648;2022-08-18T05:24:57;20.20;99.90
25074;DHT22;13066;52.042;5.648;2022-08-18T05:27:30;20.20;99.90
25074;DHT22;13066;52.042;5.648;2022-08-18T05:30:00;20.20;99.90
25074;DHT22;13066;52.042;5.648;2022-08-18T05:32:28;20.10;99.90
25074;DHT22;13066;52.042;5.648;2022-08-18T05:35:21;20.10;99.90
25074;DHT22;13066;52.042;5.648;2022-08-18T05:38:01;20.10;99.90
25074;DHT22;13066;52.042;5.648;2022-08-18T05:40:31;20.10;99.90
25074;DHT22;13066;52.042;5.648;2022-08-18T05:43:00;20.10;99.90
25074;DHT22;13066;52.042;5.648;2022-08-18T05:45:30;20.10;99.90
25074;DHT22;13066;52.042;5.648;2022-08-18T05:48:00;20.10;99.90
25074;DHT22;13066;52.042;5.648;2022-08-18T05:50:32;20.10;99.90
25074;DHT22;13066;52.042;5.648;2022-08-18T05:53:06;20.20;99.90
25074;DHT22;13066;52.042;5.648;2022-08-18T05:55:42;20.10;99.90
25074;DHT22;13066;52.042;5.648;2022-08-18T05:58:32;20.10;99.90
25074;DHT22;13066;52.042;5.648;2022-08-18T06:01:04;20.20;99.90
25074;DHT22;13066;52.042;5.648;2022-08-18T06:03:36;20.20;99.90
25074;DHT22;13066;52.042;5.648;2022-08-18T06:06:17;20.20;99.90
25074;DHT22;13066;52.042;5.648;2022-08-18T06:08:47;20.10;99.90
25074;DHT22;13066;52.042;5.648;2022-08-18T06:11:17;20.10;99.90
25074;DHT22;13066;52.042;5.648;2022-08-18T06:13:49;20.10;99.90
25074;DHT22;13066;52.042;5.648;2022-08-18T06:16:37;20.10;99.90
25074;DHT22;13066;52.042;5.648;2022-08-18T06:19:25;20.20;99.90
25074;DHT22;13066;52.042;5.648;2022-08-18T06:22:04;20.20;99.90
25074;DHT22;13066;52.042;5.648;2022-08-18T06:24:37;20.20;99.90
25074;DHT22;13066;52.042;5.648;2022-08-18T06:27:19;20.30;99.90
25074;DHT22;13066;52.042;5.648;2022-08-18T06:30:03;20.30;99.90
25074;DHT22;13066;52.042;5.648;2022-08-18T06:32:45;20.40;99.90
25074;DHT22;13066;52.042;5.648;2022-08-18T06:35:28;20.40;99.90
25074;DHT22;13066;52.042;5.648;2022-08-18T06:38:33;20.40;99.90
25074;DHT22;13066;52.042;5.648;2022-08-18T06:41:11;20.50;99.90
25074;DHT22;13066;52.042;5.648;2022-08-18T06:44:06;20.50;99.90
25074;DHT22;13066;52.042;5.648;2022-08-18T06:46:45;20.50;99.90
25074;DHT22;13066;52.042;5.648;2022-08-18T06:49:30;20.60;99.90
25074;DHT22;13066;52.042;5.648;2022-08-18T06:52:22;20.70;99.90
25074;DHT22;13066;52.042;5.648;2022-08-18T06:54:53;20.70;99.90
25074;DHT22;13066;52.042;5.648;2022-08-18T06:57:25;20.70;99.90
25074;DHT22;13066;52.042;5.648;2022-08-18T06:59:59;20.80;99.90
25074;DHT22;13066;52.042;5.648;2022-08-18T07:02:44;20.80;99.90
25074;DHT22;13066;52.042;5.648;2022-08-18T07:05:22;20.90;99.90
25074;DHT22;13066;52.042;5.648;2022-08-18T07:08:16;20.90;99.90
25074;DHT22;13066;52.042;5.648;2022-08-18T07:10:47;21.00;99.90
25074;DHT22;13066;52.042;5.648;2022-08-18T07:13:19;21.00;99.90
25074;DHT22;13066;52.042;5.648;2022-08-18T07:15:48;21.10;99.90
25074;DHT22;13066;52.042;5.648;2022-08-18T07:18:22;21.20;99.90
25074;DHT22;13066;52.042;5.648;2022-08-18T07:20:53;21.20;99.90
25074;DHT22;13066;52.042;5.648;2022-08-18T07:23:25;21.30;99.90
25074;DHT22;13066;52.042;5.648;2022-08-18T07:26:06;21.30;99.90
25074;DHT22;13066;52.042;5.648;2022-08-18T07:28:38;21.40;99.90
25074;DHT22;13066;52.042;5.648;2022-08-18T07:31:15;21.50;99.90
25074;DHT22;13066;52.042;5.648;2022-08-18T07:33:51;21.50;99.90
25074;DHT22;13066;52.042;5.648;2022-08-18T07:36:26;21.60;99.90
25074;DHT22;13066;52.042;5.648;2022-08-18T07:38:59;21.60;99.90
25074;DHT22;13066;52.042;5.648;2022-08-18T07:41:33;21.70;99.90
25074;DHT22;13066;52.042;5.648;2022-08-18T07:44:10;21.70;99.90
25074;DHT22;13066;52.042;5.648;2022-08-18T07:46:47;21.80;99.90
25074;DHT22;13066;52.042;5.648;2022-08-18T07:49:20;21.80;99.90
25074;DHT22;13066;52.042;5.648;2022-08-18T07:51:53;21.90;99.90
25074;DHT22;13066;52.042;5.648;2022-08-18T07:54:31;22.00;99.90
25074;DHT22;13066;52.042;5.648;2022-08-18T07:57:24;22.10;99.90
25074;DHT22;13066;52.042;5.648;2022-08-18T08:00:02;22.20;99.90
25074;DHT22;13066;52.042;5.648;2022-08-18T08:02:44;22.20;99.90
25074;DHT22;13066;52.042;5.648;2022-08-18T08:05:33;22.30;99.90
25074;DHT22;13066;52.042;5.648;2022-08-18T08:08:10;22.30;99.90
25074;DHT22;13066;52.042;5.648;2022-08-18T08:10:52;22.30;99.90
25074;DHT22;13066;52.042;5.648;2022-08-18T08:13:38;22.30;99.90
25074;DHT22;13066;52.042;5.648;2022-08-18T08:16:27;22.30;99.90
25074;DHT22;13066;52.042;5.648;2022-08-18T08:19:10;22.30;99.90
25074;DHT22;13066;52.042;5.648;2022-08-18T08:21:47;22.40;99.90
25074;DHT22;13066;52.042;5.648;2022-08-18T08:24:23;22.40;99.90
25074;DHT22;13066;52.042;5.648;2022-08-18T08:27:03;22.50;99.90
25074;DHT22;13066;52.042;5.648;2022-08-18T08:29:39;22.50;99.90
25074;DHT22;13066;52.042;5.648;2022-08-18T08:32:15;22.50;99.90
25074;DHT22;13066;52.042;5.648;2022-08-18T08:34:50;22.50;99.90
25074;DHT22;13066;52.042;5.648;2022-08-18T08:37:26;22.50;99.90
25074;DHT22;13066;52.042;5.648;2022-08-18T08:40:00;22.50;99.90
25074;DHT22;13066;52.042;5.648;2022-08-18T08:42:39;22.50;99.90
25074;DHT22;13066;52.042;5.648;2022-08-18T08:45:13;22.60;99.90
25074;DHT22;13066;52.042;5.648;2022-08-18T08:47:50;22.60;99.90
25074;DHT22;13066;52.042;5.648;2022-08-18T08:50:33;22.60;99.90
25074;DHT22;13066;52.042;5.648;2022-08-18T08:53:06;22.70;99.90
25074;DHT22;13066;52.042;5.648;2022-08-18T08:55:40;22.70;99.80
25074;DHT22;13066;52.042;5.648;2022-08-18T08:58:15;22.70;99.70
25074;DHT22;13066;52.042;5.648;2022-08-18T09:00:50;22.70;99.90
25074;DHT22;13066;52.042;5.648;2022-08-18T09:03:35;22.70;99.80
25074;DHT22;13066;52.042;5.648;2022-08-18T09:06:18;22.80;99.40
25074;DHT22;13066;52.042;5.648;2022-08-18T09:09:01;22.80;99.30
25074;DHT22;13066;52.042;5.648;2022-08-18T09:11:52;22.80;99.30
25074;DHT22;13066;52.042;5.648;2022-08-18T09:17:38;22.90;99.50
25074;DHT22;13066;52.042;5.648;2022-08-18T09:20:20;22.90;99.10
25074;DHT22;13066;52.042;5.648;2022-08-18T09:22:59;23.00;99.10
25074;DHT22;13066;52.042;5.648;2022-08-18T09:25:33;23.10;99.00
25074;DHT22;13066;52.042;5.648;2022-08-18T09:28:14;23.20;98.60
25074;DHT22;13066;52.042;5.648;2022-08-18T09:30:46;23.30;97.90
25074;DHT22;13066;52.042;5.648;2022-08-18T09:33:32;23.30;97.90
25074;DHT22;13066;52.042;5.648;2022-08-18T09:36:16;23.40;97.70
25074;DHT22;13066;52.042;5.648;2022-08-18T09:38:54;23.50;97.40
25074;DHT22;13066;52.042;5.648;2022-08-18T09:41:48;23.50;97.50
25074;DHT22;13066;52.042;5.648;2022-08-18T09:48:00;23.70;97.30
25074;DHT22;13066;52.042;5.648;2022-08-18T09:54:05;23.90;96.60
25074;DHT22;13066;52.042;5.648;2022-08-18T09:57:18;23.90;96.60
25074;DHT22;13066;52.042;5.648;2022-08-18T09:59:56;24.00;96.60
25074;DHT22;13066;52.042;5.648;2022-08-18T10:05:38;24.00;96.50
25074;DHT22;13066;52.042;5.648;2022-08-18T10:08:42;24.10;96.50
25074;DHT22;13066;52.042;5.648;2022-08-18T10:11:23;24.20;96.40
25074;DHT22;13066;52.042;5.648;2022-08-18T10:14:06;24.20;96.30
25074;DHT22;13066;52.042;5.648;2022-08-18T10:16:43;24.20;95.80
25074;DHT22;13066;52.042;5.648;2022-08-18T10:19:37;24.20;95.40
25074;DHT22;13066;52.042;5.648;2022-08-18T10:22:35;24.20;95.40
25074;DHT22;13066;52.042;5.648;2022-08-18T10:25:04;24.30;94.70
25074;DHT22;13066;52.042;5.648;2022-08-18T10:27:51;24.30;94.20
25074;DHT22;13066;52.042;5.648;2022-08-18T10:30:45;24.40;94.30
25074;DHT22;13066;52.042;5.648;2022-08-18T10:33:55;24.60;94.00
25074;DHT22;13066;52.042;5.648;2022-08-18T10:36:40;24.70;93.90
25074;DHT22;13066;52.042;5.648;2022-08-18T10:39:12;24.80;93.80
25074;DHT22;13066;52.042;5.648;2022-08-18T10:42:00;24.90;93.60
25074;DHT22;13066;52.042;5.648;2022-08-18T10:44:31;25.00;93.30
25074;DHT22;13066;52.042;5.648;2022-08-18T10:47:02;25.00;93.10
25074;DHT22;13066;52.042;5.648;2022-08-18T10:49:38;25.00;92.60
25074;DHT22;13066;52.042;5.648;2022-08-18T10:55:37;25.00;91.80
25074;DHT22;13066;52.042;5.648;2022-08-18T11:01:41;25.20;91.50
25074;DHT22;13066;52.042;5.648;2022-08-18T11:04:24;25.20;91.80
25074;DHT22;13066;52.042;5.648;2022-08-18T11:07:06;25.20;92.00
25074;DHT22;13066;52.042;5.648;2022-08-18T11:09:35;25.20;91.90
25074;DHT22;13066;52.042;5.648;2022-08-18T11:12:11;25.20;91.60
25074;DHT22;13066;52.042;5.648;2022-08-18T11:14:58;25.20;91.90
25074;DHT22;13066;52.042;5.648;2022-08-18T11:17:58;25.20;91.70
25074;DHT22;13066;52.042;5.648;2022-08-18T11:20:31;25.30;92.10
25074;DHT22;13066;52.042;5.648;2022-08-18T11:23:02;25.30;91.80
25074;DHT22;13066;52.042;5.648;2022-08-18T11:25:33;25.20;91.80
25074;DHT22;13066;52.042;5.648;2022-08-18T11:28:13;25.30;92.00
25074;DHT22;13066;52.042;5.648;2022-08-18T11:30:46;25.40;92.00
25074;DHT22;13066;52.042;5.648;2022-08-18T11:33:16;25.40;91.80
25074;DHT22;13066;52.042;5.648;2022-08-18T11:35:52;25.40;91.80
25074;DHT22;13066;52.042;5.648;2022-08-18T11:38:24;25.40;92.00
25074;DHT22;13066;52.042;5.648;2022-08-18T11:41:10;25.40;91.80
25074;DHT22;13066;52.042;5.648;2022-08-18T11:43:45;25.60;91.60
25074;DHT22;13066;52.042;5.648;2022-08-18T11:46:22;25.60;91.30
25074;DHT22;13066;52.042;5.648;2022-08-18T11:48:57;25.70;91.20
25074;DHT22;13066;52.042;5.648;2022-08-18T11:51:28;25.90;90.80
25074;DHT22;13066;52.042;5.648;2022-08-18T11:53:59;25.90;90.60
25074;DHT22;13066;52.042;5.648;2022-08-18T11:56:30;26.00;90.40
25074;DHT22;13066;52.042;5.648;2022-08-18T11:59:07;26.10;90.40
25074;DHT22;13066;52.042;5.648;2022-08-18T12:01:39;26.20;90.20
25074;DHT22;13066;52.042;5.648;2022-08-18T12:04:21;26.20;90.60
25074;DHT22;13066;52.042;5.648;2022-08-18T12:06:56;26.20;90.30
25074;DHT22;13066;52.042;5.648;2022-08-18T12:09:34;26.10;90.10
25074;DHT22;13066;52.042;5.648;2022-08-18T12:12:24;26.10;90.10
25074;DHT22;13066;52.042;5.648;2022-08-18T12:15:00;26.10;90.20
25074;DHT22;13066;52.042;5.648;2022-08-18T12:17:43;26.10;90.20
25074;DHT22;13066;52.042;5.648;2022-08-18T12:20:18;26.10;90.20
25074;DHT22;13066;52.042;5.648;2022-08-18T12:22:47;26.10;90.00
25074;DHT22;13066;52.042;5.648;2022-08-18T12:25:17;26.10;89.50
25074;DHT22;13066;52.042;5.648;2022-08-18T12:28:05;26.20;89.40
25074;DHT22;13066;52.042;5.648;2022-08-18T12:30:38;26.10;88.70
25074;DHT22;13066;52.042;5.648;2022-08-18T12:33:26;26.20;88.90
25074;DHT22;13066;52.042;5.648;2022-08-18T12:36:14;26.20;89.50
25074;DHT22;13066;52.042;5.648;2022-08-18T12:38:43;26.20;89.60
25074;DHT22;13066;52.042;5.648;2022-08-18T12:41:22;26.30;89.60
25074;DHT22;13066;52.042;5.648;2022-08-18T12:43:50;26.30;89.40
25074;DHT22;13066;52.042;5.648;2022-08-18T12:46:41;26.30;89.20
25074;DHT22;13066;52.042;5.648;2022-08-18T12:49:15;26.40;88.80
25074;DHT22;13066;52.042;5.648;2022-08-18T12:51:44;26.50;88.40
25074;DHT22;13066;52.042;5.648;2022-08-18T12:54:16;26.60;88.30
25074;DHT22;13066;52.042;5.648;2022-08-18T12:56:47;26.60;88.40
25074;DHT22;13066;52.042;5.648;2022-08-18T12:59:17;26.60;88.30
25074;DHT22;13066;52.042;5.648;2022-08-18T13:01:46;26.70;88.30
25074;DHT22;13066;52.042;5.648;2022-08-18T13:04:15;26.70;88.10
25074;DHT22;13066;52.042;5.648;2022-08-18T13:07:04;26.70;87.70
25074;DHT22;13066;52.042;5.648;2022-08-18T13:09:35;26.70;87.60
25074;DHT22;13066;52.042;5.648;2022-08-18T13:12:20;26.80;87.30
25074;DHT22;13066;52.042;5.648;2022-08-18T13:14:50;26.80;87.50
25074;DHT22;13066;52.042;5.648;2022-08-18T13:17:22;26.80;87.60
25074;DHT22;13066;52.042;5.648;2022-08-18T13:19:58;26.80;87.40
25074;DHT22;13066;52.042;5.648;2022-08-18T13:22:27;26.80;86.90
25074;DHT22;13066;52.042;5.648;2022-08-18T13:24:58;26.90;86.70
25074;DHT22;13066;52.042;5.648;2022-08-18T13:27:26;26.90;86.50
25074;DHT22;13066;52.042;5.648;2022-08-18T13:30:02;27.00;85.90
25074;DHT22;13066;52.042;5.648;2022-08-18T13:32:52;27.00;85.30
25074;DHT22;13066;52.042;5.648;2022-08-18T13:35:26;26.90;85.80
25074;DHT22;13066;52.042;5.648;2022-08-18T13:38:01;27.00;85.50
25074;DHT22;13066;52.042;5.648;2022-08-18T13:40:42;27.00;85.30
25074;DHT22;13066;52.042;5.648;2022-08-18T13:43:14;27.00;85.60
25074;DHT22;13066;52.042;5.648;2022-08-18T13:45:44;27.00;86.00
25074;DHT22;13066;52.042;5.648;2022-08-18T13:48:23;27.10;86.20
25074;DHT22;13066;52.042;5.648;2022-08-18T13:50:53;27.20;84.60
25074;DHT22;13066;52.042;5.648;2022-08-18T13:53:22;27.30;83.40
25074;DHT22;13066;52.042;5.648;2022-08-18T13:55:53;27.40;82.20
25074;DHT22;13066;52.042;5.648;2022-08-18T13:58:24;27.60;81.90
25074;DHT22;13066;52.042;5.648;2022-08-18T14:00:56;27.70;81.90
25074;DHT22;13066;52.042;5.648;2022-08-18T14:03:46;28.00;80.70
25074;DHT22;13066;52.042;5.648;2022-08-18T14:06:16;28.10;79.20
25074;DHT22;13066;52.042;5.648;2022-08-18T14:08:50;28.20;78.00
25074;DHT22;13066;52.042;5.648;2022-08-18T14:11:21;28.30;77.00
25074;DHT22;13066;52.042;5.648;2022-08-18T14:13:59;28.30;76.30
25074;DHT22;13066;52.042;5.648;2022-08-18T14:16:28;28.40;76.10
25074;DHT22;13066;52.042;5.648;2022-08-18T14:18:57;28.40;75.80
25074;DHT22;13066;52.042;5.648;2022-08-18T14:21:50;28.50;74.70
25074;DHT22;13066;52.042;5.648;2022-08-18T14:24:38;28.50;75.40
25074;DHT22;13066;52.042;5.648;2022-08-18T14:27:26;28.60;76.50
25074;DHT22;13066;52.042;5.648;2022-08-18T14:30:02;28.70;77.80
25074;DHT22;13066;52.042;5.648;2022-08-18T14:32:31;28.60;77.30
25074;DHT22;13066;52.042;5.648;2022-08-18T14:35:05;28.60;77.80
25074;DHT22;13066;52.042;5.648;2022-08-18T14:37:53;28.60;77.60
25074;DHT22;13066;52.042;5.648;2022-08-18T14:40:22;28.70;77.20
25074;DHT22;13066;52.042;5.648;2022-08-18T14:42:51;28.70;76.70
25074;DHT22;13066;52.042;5.648;2022-08-18T14:45:22;28.70;76.80
25074;DHT22;13066;52.042;5.648;2022-08-18T14:48:02;28.70;76.40
25074;DHT22;13066;52.042;5.648;2022-08-18T14:50:39;28.70;75.90
25074;DHT22;13066;52.042;5.648;2022-08-18T14:53:15;28.70;76.00
25074;DHT22;13066;52.042;5.648;2022-08-18T14:55:45;28.70;75.80
25074;DHT22;13066;52.042;5.648;2022-08-18T14:58:17;28.70;74.90
25074;DHT22;13066;52.042;5.648;2022-08-18T15:00:46;28.70;74.40
25074;DHT22;13066;52.042;5.648;2022-08-18T15:03:20;28.60;74.40
25074;DHT22;13066;52.042;5.648;2022-08-18T15:06:00;28.60;74.70
25074;DHT22;13066;52.042;5.648;2022-08-18T15:08:31;28.60;74.80
25074;DHT22;13066;52.042;5.648;2022-08-18T15:11:02;28.60;74.40
25074;DHT22;13066;52.042;5.648;2022-08-18T15:13:38;28.60;74.60
25074;DHT22;13066;52.042;5.648;2022-08-18T15:16:08;28.60;74.60
25074;DHT22;13066;52.042;5.648;2022-08-18T15:18:39;28.60;74.50
25074;DHT22;13066;52.042;5.648;2022-08-18T15:21:09;28.60;74.50
25074;DHT22;13066;52.042;5.648;2022-08-18T15:24:05;28.50;74.30
25074;DHT22;13066;52.042;5.648;2022-08-18T15:26:51;28.40;74.20
25074;DHT22;13066;52.042;5.648;2022-08-18T15:29:24;28.20;74.20
25074;DHT22;13066;52.042;5.648;2022-08-18T15:31:55;28.10;74.50
25074;DHT22;13066;52.042;5.648;2022-08-18T15:34:32;28.00;74.80
25074;DHT22;13066;52.042;5.648;2022-08-18T15:37:14;27.90;75.20
25074;DHT22;13066;52.042;5.648;2022-08-18T15:39:46;27.90;75.60
25074;DHT22;13066;52.042;5.648;2022-08-18T15:42:21;27.90;77.10
25074;DHT22;13066;52.042;5.648;2022-08-18T15:44:49;28.00;76.50
25074;DHT22;13066;52.042;5.648;2022-08-18T15:47:19;28.00;76.30
25074;DHT22;13066;52.042;5.648;2022-08-18T15:49:50;28.10;75.50
25074;DHT22;13066;52.042;5.648;2022-08-18T15:52:22;28.10;75.20
25074;DHT22;13066;52.042;5.648;2022-08-18T15:54:52;28.10;75.20
25074;DHT22;13066;52.042;5.648;2022-08-18T15:57:24;28.10;75.60
25074;DHT22;13066;52.042;5.648;2022-08-18T16:00:07;28.10;75.10
25074;DHT22;13066;52.042;5.648;2022-08-18T16:02:38;28.10;75.50
25074;DHT22;13066;52.042;5.648;2022-08-18T16:05:15;28.20;76.20
25074;DHT22;13066;52.042;5.648;2022-08-18T16:07:45;28.30;76.00
25074;DHT22;13066;52.042;5.648;2022-08-18T16:10:14;28.30;76.40
25074;DHT22;13066;52.042;5.648;2022-08-18T16:12:44;28.40;75.70
25074;DHT22;13066;52.042;5.648;2022-08-18T16:15:13;28.30;75.90
25074;DHT22;13066;52.042;5.648;2022-08-18T16:17:47;28.30;76.10
25074;DHT22;13066;52.042;5.648;2022-08-18T16:20:16;28.30;76.10
25074;DHT22;13066;52.042;5.648;2022-08-18T16:22:46;28.30;76.00
25074;DHT22;13066;52.042;5.648;2022-08-18T16:25:14;28.30;75.40
25074;DHT22;13066;52.042;5.648;2022-08-18T16:27:43;28.20;75.20
25074;DHT22;13066;52.042;5.648;2022-08-18T16:30:13;28.20;75.70
25074;DHT22;13066;52.042;5.648;2022-08-18T16:32:41;28.10;75.80
25074;DHT22;13066;52.042;5.648;2022-08-18T16:35:10;28.10;75.60
25074;DHT22;13066;52.042;5.648;2022-08-18T16:37:39;28.00;76.70
25074;DHT22;13066;52.042;5.648;2022-08-18T16:40:10;27.90;76.20